sensor_id;sensor_type;location;lat;lon;timestamp;P1;durP1;ratioP1;P2;durP2;ratioP2
4867;SDS011;2448;48.086;10.862;2023-01-16T00:00:42;0.80;;;0.80;;
4867;SDS011;2448;48.086;10.862;2023-01-16T00:03:08;0.70;;;0.70;;
4867;SDS011;2448;48.086;10.862;2023-01-16T00:05:33;0.80;;;0.80;;
4867;SDS011;2448;48.086;10.862;2023-01-16T00:07:59;0.60;;;0.60;;
4867;SDS011;2448;48.086;10.862;2023-01-16T00:10:24;0.77;;;0.77;;
4867;SDS011;2448;48.086;10.862;2023-01-16T00:12:49;0.83;;;0.83;;
4867;SDS011;2448;48.086;10.862;2023-01-16T00:15:15;0.70;;;0.70;;
4867;SDS011;2448;48.086;10.862;2023-01-16T00:17:40;0.80;;;0.80;;
4867;SDS011;2448;48.086;10.862;2023-01-16T00:20:06;0.83;;;0.83;;
4867;SDS011;2448;48.086;10.862;2023-01-16T00:22:31;0.70;;;0.70;;
4867;SDS011;2448;48.086;10.862;2023-01-16T00:24:56;0.80;;;0.80;;
4867;SDS011;2448;48.086;10.862;2023-01-16T00:27:22;1.47;;;0.80;;
4867;SDS011;2448;48.086;10.862;2023-01-16T00:29:47;0.60;;;0.60;;
4867;SDS011;2448;48.086;10.862;2023-01-16T00:32:12;3.60;;;0.80;;
4867;SDS011;2448;48.086;10.862;2023-01-16T00:34:40;1.00;;;1.00;;
4867;SDS011;2448;48.086;10.862;2023-01-16T00:37:05;0.83;;;0.83;;
4867;SDS011;2448;48.086;10.862;2023-01-16T00:39:31;0.77;;;0.77;;
4867;SDS011;2448;48.086;10.862;2023-01-16T00:41:56;1.70;;;0.80;;
4867;SDS011;2448;48.086;10.862;2023-01-16T00:44:22;0.80;;;0.80;;
4867;SDS011;2448;48.086;10.862;2023-01-16T00:46:47;0.70;;;0.70;;
4867;SDS011;2448;48.086;10.862;2023-01-16T00:49:12;0.70;;;0.70;;
4867;SDS011;2448;48.086;10.862;2023-01-16T00:51:38;0.83;;;0.83;;
4867;SDS011;2448;48.086;10.862;2023-01-16T00:54:03;0.87;;;0.80;;
4867;SDS011;2448;48.086;10.862;2023-01-16T00:56:28;0.70;;;0.70;;
4867;SDS011;2448;48.086;10.862;2023-01-16T00:58:54;0.60;;;0.60;;
4867;SDS011;2448;48.086;10.862;2023-01-16T01:01:19;0.70;;;0.70;;
4867;SDS011;2448;48.086;10.862;2023-01-16T01:03:45;0.80;;;0.80;;
4867;SDS011;2448;48.086;10.862;2023-01-16T01:06:10;0.70;;;0.70;;
4867;SDS011;2448;48.086;10.862;2023-01-16T01:08:38;0.80;;;0.80;;
4867;SDS011;2448;48.086;10.862;2023-01-16T01:11:11;0.90;;;0.90;;
4867;SDS011;2448;48.086;10.862;2023-01-16T01:13:38;0.83;;;0.83;;
4867;SDS011;2448;48.086;10.862;2023-01-16T01:16:03;0.80;;;0.80;;
4867;SDS011;2448;48.086;10.862;2023-01-16T01:18:29;0.70;;;0.70;;
4867;SDS011;2448;48.086;10.862;2023-01-16T01:20:54;0.80;;;0.80;;
4867;SDS011;2448;48.086;10.862;2023-01-16T01:23:20;0.80;;;0.80;;
4867;SDS011;2448;48.086;10.862;2023-01-16T01:25:45;2.10;;;1.00;;
4867;SDS011;2448;48.086;10.862;2023-01-16T01:28:10;0.80;;;0.80;;
4867;SDS011;2448;48.086;10.862;2023-01-16T01:30:36;1.00;;;0.90;;
4867;SDS011;2448;48.086;10.862;2023-01-16T01:33:02;1.00;;;1.00;;
4867;SDS011;2448;48.086;10.862;2023-01-16T01:35:27;0.90;;;0.90;;
4867;SDS011;2448;48.086;10.862;2023-01-16T01:37:53;0.70;;;0.70;;
4867;SDS011;2448;48.086;10.862;2023-01-16T01:40:18;0.90;;;0.90;;
4867;SDS011;2448;48.086;10.862;2023-01-16T01:42:43;0.90;;;0.90;;
4867;SDS011;2448;48.086;10.862;2023-01-16T01:47:36;0.80;;;0.80;;
4867;SDS011;2448;48.086;10.862;2023-01-16T01:50:04;0.83;;;0.83;;
4867;SDS011;2448;48.086;10.862;2023-01-16T01:52:34;0.97;;;0.97;;
4867;SDS011;2448;48.086;10.862;2023-01-16T01:55:02;0.60;;;0.60;;
4867;SDS011;2448;48.086;10.862;2023-01-16T01:57:33;0.73;;;0.73;;
4867;SDS011;2448;48.086;10.862;2023-01-16T02:00:05;2.00;;;1.00;;
4867;SDS011;2448;48.086;10.862;2023-01-16T02:02:37;0.80;;;0.80;;
4867;SDS011;2448;48.086;10.862;2023-01-16T02:05:05;0.87;;;0.87;;
4867;SDS011;2448;48.086;10.862;2023-01-16T02:07:31;0.70;;;0.70;;
4867;SDS011;2448;48.086;10.862;2023-01-16T02:10:02;0.87;;;0.87;;
4867;SDS011;2448;48.086;10.862;2023-01-16T02:12:30;0.80;;;0.80;;
4867;SDS011;2448;48.086;10.862;2023-01-16T02:14:56;0.67;;;0.67;;
4867;SDS011;2448;48.086;10.862;2023-01-16T02:17:23;0.60;;;0.60;;
4867;SDS011;2448;48.086;10.862;2023-01-16T02:20:24;1.00;;;1.00;;
4867;SDS011;2448;48.086;10.862;2023-01-16T02:36:28;0.60;;;0.60;;
4867;SDS011;2448;48.086;10.862;2023-01-16T02:43:48;1.00;;;1.00;;
4867;SDS011;2448;48.086;10.862;2023-01-16T02:48:56;2.00;;;0.97;;
4867;SDS011;2448;48.086;10.862;2023-01-16T02:51:34;1.17;;;1.17;;
4867;SDS011;2448;48.086;10.862;2023-01-16T02:56:43;1.10;;;1.10;;
4867;SDS011;2448;48.086;10.862;2023-01-16T02:59:11;0.93;;;0.93;;
4867;SDS011;2448;48.086;10.862;2023-01-16T03:01:37;2.87;;;2.00;;
4867;SDS011;2448;48.086;10.862;2023-01-16T03:04:51;1.00;;;1.00;;
4867;SDS011;2448;48.086;10.862;2023-01-16T03:06:57;1.00;;;1.00;;
4867;SDS011;2448;48.086;10.862;2023-01-16T03:15:01;1.20;;;1.20;;
4867;SDS011;2448;48.086;10.862;2023-01-16T03:22:38;1.10;;;1.10;;
4867;SDS011;2448;48.086;10.862;2023-01-16T03:30:23;1.00;;;1.00;;
4867;SDS011;2448;48.086;10.862;2023-01-16T03:32:56;0.83;;;0.83;;
4867;SDS011;2448;48.086;10.862;2023-01-16T03:35:25;0.80;;;0.80;;
4867;SDS011;2448;48.086;10.862;2023-01-16T03:37:52;0.80;;;0.80;;
4867;SDS011;2448;48.086;10.862;2023-01-16T03:40:22;0.60;;;0.60;;
4867;SDS011;2448;48.086;10.862;2023-01-16T03:42:55;1.03;;;0.80;;
4867;SDS011;2448;48.086;10.862;2023-01-16T03:45:32;1.10;;;1.10;;
4867;SDS011;2448;48.086;10.862;2023-01-16T03:48:21;0.83;;;0.83;;
4867;SDS011;2448;48.086;10.862;2023-01-16T03:50:49;1.70;;;1.60;;
4867;SDS011;2448;48.086;10.862;2023-01-16T03:53:16;1.00;;;1.00;;
4867;SDS011;2448;48.086;10.862;2023-01-16T03:56:44;1.40;;;1.30;;
4867;SDS011;2448;48.086;10.862;2023-01-16T03:58:38;2.43;;;1.10;;
4867;SDS011;2448;48.086;10.862;2023-01-16T04:01:18;0.97;;;0.97;;
4867;SDS011;2448;48.086;10.862;2023-01-16T04:06:19;0.90;;;0.90;;
4867;SDS011;2448;48.086;10.862;2023-01-16T04:08:45;1.07;;;1.07;;
4867;SDS011;2448;48.086;10.862;2023-01-16T04:11:11;0.87;;;0.87;;
4867;SDS011;2448;48.086;10.862;2023-01-16T04:13:38;1.03;;;1.03;;
4867;SDS011;2448;48.086;10.862;2023-01-16T04:16:06;1.17;;;0.97;;
4867;SDS011;2448;48.086;10.862;2023-01-16T04:18:33;0.83;;;0.83;;
4867;SDS011;2448;48.086;10.862;2023-01-16T04:20:59;0.70;;;0.70;;
4867;SDS011;2448;48.086;10.862;2023-01-16T04:23:24;0.90;;;0.90;;
4867;SDS011;2448;48.086;10.862;2023-01-16T04:25:50;1.37;;;1.27;;
4867;SDS011;2448;48.086;10.862;2023-01-16T04:28:15;0.90;;;0.90;;
4867;SDS011;2448;48.086;10.862;2023-01-16T04:30:41;1.07;;;1.07;;
4867;SDS011;2448;48.086;10.862;2023-01-16T04:33:06;0.83;;;0.83;;
4867;SDS011;2448;48.086;10.862;2023-01-16T04:35:31;0.80;;;0.80;;
4867;SDS011;2448;48.086;10.862;2023-01-16T04:37:57;0.80;;;0.80;;
4867;SDS011;2448;48.086;10.862;2023-01-16T04:40:23;1.10;;;1.10;;
4867;SDS011;2448;48.086;10.862;2023-01-16T04:42:49;1.33;;;1.23;;
4867;SDS011;2448;48.086;10.862;2023-01-16T04:45:14;1.00;;;1.00;;
4867;SDS011;2448;48.086;10.862;2023-01-16T04:47:39;0.90;;;0.90;;
4867;SDS011;2448;48.086;10.862;2023-01-16T04:50:05;0.87;;;0.87;;
4867;SDS011;2448;48.086;10.862;2023-01-16T04:52:30;0.80;;;0.80;;
4867;SDS011;2448;48.086;10.862;2023-01-16T04:54:56;1.10;;;1.10;;
4867;SDS011;2448;48.086;10.862;2023-01-16T04:57:21;1.03;;;1.03;;
4867;SDS011;2448;48.086;10.862;2023-01-16T04:59:47;0.80;;;0.80;;
4867;SDS011;2448;48.086;10.862;2023-01-16T05:02:12;0.80;;;0.80;;
4867;SDS011;2448;48.086;10.862;2023-01-16T05:04:37;0.70;;;0.70;;
4867;SDS011;2448;48.086;10.862;2023-01-16T05:07:03;0.83;;;0.83;;
4867;SDS011;2448;48.086;10.862;2023-01-16T05:09:28;0.70;;;0.70;;
4867;SDS011;2448;48.086;10.862;2023-01-16T05:11:54;0.70;;;0.70;;
4867;SDS011;2448;48.086;10.862;2023-01-16T05:14:19;0.70;;;0.70;;
4867;SDS011;2448;48.086;10.862;2023-01-16T05:16:45;0.90;;;0.90;;
4867;SDS011;2448;48.086;10.862;2023-01-16T05:19:10;0.80;;;0.80;;
4867;SDS011;2448;48.086;10.862;2023-01-16T05:21:36;0.73;;;0.73;;
4867;SDS011;2448;48.086;10.862;2023-01-16T05:24:01;1.60;;;1.30;;
4867;SDS011;2448;48.086;10.862;2023-01-16T05:26:27;0.70;;;0.70;;
4867;SDS011;2448;48.086;10.862;2023-01-16T05:28:52;0.60;;;0.60;;
4867;SDS011;2448;48.086;10.862;2023-01-16T05:31:18;0.80;;;0.80;;
4867;SDS011;2448;48.086;10.862;2023-01-16T05:33:43;1.00;;;1.00;;
4867;SDS011;2448;48.086;10.862;2023-01-16T05:36:09;0.83;;;0.83;;
4867;SDS011;2448;48.086;10.862;2023-01-16T05:38:34;0.80;;;0.80;;
4867;SDS011;2448;48.086;10.862;2023-01-16T05:41:00;0.87;;;0.87;;
4867;SDS011;2448;48.086;10.862;2023-01-16T05:43:25;0.80;;;0.80;;
4867;SDS011;2448;48.086;10.862;2023-01-16T05:45:50;0.80;;;0.80;;
4867;SDS011;2448;48.086;10.862;2023-01-16T05:48:16;0.80;;;0.80;;
4867;SDS011;2448;48.086;10.862;2023-01-16T05:50:41;0.73;;;0.73;;
4867;SDS011;2448;48.086;10.862;2023-01-16T05:53:07;0.60;;;0.60;;
4867;SDS011;2448;48.086;10.862;2023-01-16T05:55:36;0.70;;;0.70;;
4867;SDS011;2448;48.086;10.862;2023-01-16T05:58:04;0.77;;;0.77;;
4867;SDS011;2448;48.086;10.862;2023-01-16T06:00:29;0.90;;;0.90;;
4867;SDS011;2448;48.086;10.862;2023-01-16T06:02:55;0.67;;;0.67;;
4867;SDS011;2448;48.086;10.862;2023-01-16T06:05:20;1.30;;;1.20;;
4867;SDS011;2448;48.086;10.862;2023-01-16T06:07:45;0.90;;;0.90;;
4867;SDS011;2448;48.086;10.862;2023-01-16T06:10:11;9.97;;;1.10;;
4867;SDS011;2448;48.086;10.862;2023-01-16T06:12:36;0.70;;;0.70;;
4867;SDS011;2448;48.086;10.862;2023-01-16T06:15:01;0.77;;;0.77;;
4867;SDS011;2448;48.086;10.862;2023-01-16T06:17:27;5.50;;;1.00;;
4867;SDS011;2448;48.086;10.862;2023-01-16T06:19:52;0.90;;;0.90;;
4867;SDS011;2448;48.086;10.862;2023-01-16T06:22:18;3.53;;;1.37;;
4867;SDS011;2448;48.086;10.862;2023-01-16T06:24:43;1.63;;;1.53;;
4867;SDS011;2448;48.086;10.862;2023-01-16T06:27:08;0.70;;;0.70;;
4867;SDS011;2448;48.086;10.862;2023-01-16T06:29:34;0.93;;;0.93;;
4867;SDS011;2448;48.086;10.862;2023-01-16T06:31:59;0.77;;;0.77;;
4867;SDS011;2448;48.086;10.862;2023-01-16T06:34:24;0.80;;;0.80;;
4867;SDS011;2448;48.086;10.862;2023-01-16T06:36:50;0.87;;;0.87;;
4867;SDS011;2448;48.086;10.862;2023-01-16T06:39:16;0.70;;;0.70;;
4867;SDS011;2448;48.086;10.862;2023-01-16T06:41:41;1.00;;;1.00;;
4867;SDS011;2448;48.086;10.862;2023-01-16T06:44:07;0.90;;;0.90;;
4867;SDS011;2448;48.086;10.862;2023-01-16T06:46:33;0.70;;;0.70;;
4867;SDS011;2448;48.086;10.862;2023-01-16T06:48:58;0.80;;;0.80;;
4867;SDS011;2448;48.086;10.862;2023-01-16T06:51:23;0.70;;;0.70;;
4867;SDS011;2448;48.086;10.862;2023-01-16T06:53:49;0.90;;;0.90;;
4867;SDS011;2448;48.086;10.862;2023-01-16T06:56:14;0.80;;;0.80;;
4867;SDS011;2448;48.086;10.862;2023-01-16T06:58:39;0.80;;;0.70;;
4867;SDS011;2448;48.086;10.862;2023-01-16T07:01:05;0.80;;;0.80;;
4867;SDS011;2448;48.086;10.862;2023-01-16T07:03:31;3.33;;;0.97;;
4867;SDS011;2448;48.086;10.862;2023-01-16T07:05:56;0.80;;;0.80;;
4867;SDS011;2448;48.086;10.862;2023-01-16T07:08:22;0.70;;;0.70;;
4867;SDS011;2448;48.086;10.862;2023-01-16T07:10:47;2.77;;;0.90;;
4867;SDS011;2448;48.086;10.862;2023-01-16T07:13:13;1.00;;;1.00;;
4867;SDS011;2448;48.086;10.862;2023-01-16T07:15:38;0.80;;;0.80;;
4867;SDS011;2448;48.086;10.862;2023-01-16T07:18:24;0.70;;;0.70;;
4867;SDS011;2448;48.086;10.862;2023-01-16T07:21:10;0.70;;;0.70;;
4867;SDS011;2448;48.086;10.862;2023-01-16T07:23:56;0.80;;;0.80;;
4867;SDS011;2448;48.086;10.862;2023-01-16T07:26:23;0.80;;;0.80;;
4867;SDS011;2448;48.086;10.862;2023-01-16T07:28:49;1.23;;;1.00;;
4867;SDS011;2448;48.086;10.862;2023-01-16T07:31:15;0.93;;;0.93;;
4867;SDS011;2448;48.086;10.862;2023-01-16T07:33:41;2.77;;;1.63;;
4867;SDS011;2448;48.086;10.862;2023-01-16T07:36:06;0.60;;;0.60;;
4867;SDS011;2448;48.086;10.862;2023-01-16T07:38:32;0.93;;;0.93;;
4867;SDS011;2448;48.086;10.862;2023-01-16T07:40:57;1.17;;;1.13;;
4867;SDS011;2448;48.086;10.862;2023-01-16T07:43:22;0.80;;;0.80;;
4867;SDS011;2448;48.086;10.862;2023-01-16T07:45:48;0.80;;;0.80;;
4867;SDS011;2448;48.086;10.862;2023-01-16T07:48:20;2.40;;;0.80;;
4867;SDS011;2448;48.086;10.862;2023-01-16T07:50:55;0.80;;;0.80;;
4867;SDS011;2448;48.086;10.862;2023-01-16T07:53:22;0.80;;;0.80;;
4867;SDS011;2448;48.086;10.862;2023-01-16T07:55:48;0.80;;;0.80;;
4867;SDS011;2448;48.086;10.862;2023-01-16T07:58:14;1.03;;;1.03;;
4867;SDS011;2448;48.086;10.862;2023-01-16T08:00:40;0.83;;;0.83;;
4867;SDS011;2448;48.086;10.862;2023-01-16T08:03:05;0.80;;;0.80;;
4867;SDS011;2448;48.086;10.862;2023-01-16T08:05:30;0.80;;;0.80;;
4867;SDS011;2448;48.086;10.862;2023-01-16T08:07:56;0.90;;;0.90;;
4867;SDS011;2448;48.086;10.862;2023-01-16T08:10:21;0.80;;;0.80;;
4867;SDS011;2448;48.086;10.862;2023-01-16T08:12:47;0.60;;;0.60;;
4867;SDS011;2448;48.086;10.862;2023-01-16T08:15:12;0.80;;;0.80;;
4867;SDS011;2448;48.086;10.862;2023-01-16T08:17:38;1.30;;;1.30;;
4867;SDS011;2448;48.086;10.862;2023-01-16T08:20:04;0.80;;;0.80;;
4867;SDS011;2448;48.086;10.862;2023-01-16T08:22:29;0.90;;;0.90;;
4867;SDS011;2448;48.086;10.862;2023-01-16T08:24:55;0.97;;;0.97;;
4867;SDS011;2448;48.086;10.862;2023-01-16T08:27:20;1.40;;;1.10;;
4867;SDS011;2448;48.086;10.862;2023-01-16T08:29:46;1.00;;;1.00;;
4867;SDS011;2448;48.086;10.862;2023-01-16T08:32:11;0.70;;;0.70;;
4867;SDS011;2448;48.086;10.862;2023-01-16T08:34:36;0.80;;;0.80;;
4867;SDS011;2448;48.086;10.862;2023-01-16T08:37:02;0.60;;;0.60;;
4867;SDS011;2448;48.086;10.862;2023-01-16T08:39:29;0.90;;;0.90;;
4867;SDS011;2448;48.086;10.862;2023-01-16T08:41:55;0.60;;;0.60;;
4867;SDS011;2448;48.086;10.862;2023-01-16T08:44:38;0.60;;;0.60;;
4867;SDS011;2448;48.086;10.862;2023-01-16T08:47:23;0.50;;;0.50;;
4867;SDS011;2448;48.086;10.862;2023-01-16T08:50:09;0.80;;;0.80;;
4867;SDS011;2448;48.086;10.862;2023-01-16T08:52:54;1.33;;;0.87;;
4867;SDS011;2448;48.086;10.862;2023-01-16T08:55:19;1.03;;;1.03;;
4867;SDS011;2448;48.086;10.862;2023-01-16T08:57:44;1.23;;;1.03;;
4867;SDS011;2448;48.086;10.862;2023-01-16T09:00:10;0.80;;;0.80;;
4867;SDS011;2448;48.086;10.862;2023-01-16T09:02:35;1.03;;;1.03;;
4867;SDS011;2448;48.086;10.862;2023-01-16T09:05:03;0.70;;;0.70;;
4867;SDS011;2448;48.086;10.862;2023-01-16T09:07:29;3.10;;;0.80;;
4867;SDS011;2448;48.086;10.862;2023-01-16T09:09:54;1.10;;;1.00;;
4867;SDS011;2448;48.086;10.862;2023-01-16T09:12:20;0.80;;;0.70;;
4867;SDS011;2448;48.086;10.862;2023-01-16T09:15:03;1.27;;;0.80;;
4867;SDS011;2448;48.086;10.862;2023-01-16T09:17:29;0.67;;;0.67;;
4867;SDS011;2448;48.086;10.862;2023-01-16T09:19:54;0.80;;;0.80;;
4867;SDS011;2448;48.086;10.862;2023-01-16T09:22:20;0.90;;;0.90;;
4867;SDS011;2448;48.086;10.862;2023-01-16T09:24:45;3.73;;;1.00;;
4867;SDS011;2448;48.086;10.862;2023-01-16T09:27:11;1.00;;;1.00;;
4867;SDS011;2448;48.086;10.862;2023-01-16T09:29:40;0.90;;;0.90;;
4867;SDS011;2448;48.086;10.862;2023-01-16T09:32:06;0.80;;;0.80;;
4867;SDS011;2448;48.086;10.862;2023-01-16T09:34:37;0.80;;;0.80;;
4867;SDS011;2448;48.086;10.862;2023-01-16T09:37:03;0.97;;;0.97;;
4867;SDS011;2448;48.086;10.862;2023-01-16T09:39:28;1.10;;;1.10;;
4867;SDS011;2448;48.086;10.862;2023-01-16T09:44:38;0.80;;;0.80;;
4867;SDS011;2448;48.086;10.862;2023-01-16T09:47:05;0.93;;;0.93;;
4867;SDS011;2448;48.086;10.862;2023-01-16T09:51:56;0.70;;;0.70;;
4867;SDS011;2448;48.086;10.862;2023-01-16T09:54:44;1.37;;;1.37;;
4867;SDS011;2448;48.086;10.862;2023-01-16T09:57:30;0.80;;;0.80;;
4867;SDS011;2448;48.086;10.862;2023-01-16T10:00:16;0.70;;;0.70;;
4867;SDS011;2448;48.086;10.862;2023-01-16T10:02:42;0.80;;;0.80;;
4867;SDS011;2448;48.086;10.862;2023-01-16T10:05:08;1.27;;;0.97;;
4867;SDS011;2448;48.086;10.862;2023-01-16T10:10:19;1.23;;;1.00;;
4867;SDS011;2448;48.086;10.862;2023-01-16T10:13:08;1.07;;;0.80;;
4867;SDS011;2448;48.086;10.862;2023-01-16T10:20:54;0.80;;;0.80;;
4867;SDS011;2448;48.086;10.862;2023-01-16T10:26:08;0.73;;;0.73;;
4867;SDS011;2448;48.086;10.862;2023-01-16T10:28:50;0.93;;;0.93;;
4867;SDS011;2448;48.086;10.862;2023-01-16T10:31:18;0.70;;;0.67;;
4867;SDS011;2448;48.086;10.862;2023-01-16T10:33:51;4.63;;;1.07;;
4867;SDS011;2448;48.086;10.862;2023-01-16T10:36:21;1.10;;;1.10;;
4867;SDS011;2448;48.086;10.862;2023-01-16T10:38:48;0.73;;;0.60;;
4867;SDS011;2448;48.086;10.862;2023-01-16T10:41:21;0.90;;;0.90;;
4867;SDS011;2448;48.086;10.862;2023-01-16T10:44:11;0.70;;;0.70;;
4867;SDS011;2448;48.086;10.862;2023-01-16T10:46:57;1.07;;;1.07;;
4867;SDS011;2448;48.086;10.862;2023-01-16T10:49:41;1.00;;;1.00;;
4867;SDS011;2448;48.086;10.862;2023-01-16T10:52:06;0.90;;;0.90;;
4867;SDS011;2448;48.086;10.862;2023-01-16T10:54:32;0.60;;;0.60;;
4867;SDS011;2448;48.086;10.862;2023-01-16T10:56:57;0.60;;;0.60;;
4867;SDS011;2448;48.086;10.862;2023-01-16T10:59:28;0.70;;;0.70;;
4867;SDS011;2448;48.086;10.862;2023-01-16T11:01:55;0.73;;;0.73;;
4867;SDS011;2448;48.086;10.862;2023-01-16T11:04:21;0.60;;;0.60;;
4867;SDS011;2448;48.086;10.862;2023-01-16T11:07:07;1.00;;;1.00;;
4867;SDS011;2448;48.086;10.862;2023-01-16T11:09:37;0.60;;;0.60;;
4867;SDS011;2448;48.086;10.862;2023-01-16T11:12:02;0.80;;;0.80;;
4867;SDS011;2448;48.086;10.862;2023-01-16T11:14:46;0.70;;;0.70;;
4867;SDS011;2448;48.086;10.862;2023-01-16T11:17:31;0.80;;;0.80;;
4867;SDS011;2448;48.086;10.862;2023-01-16T11:20:20;0.90;;;0.90;;
4867;SDS011;2448;48.086;10.862;2023-01-16T11:22:51;0.90;;;0.90;;
4867;SDS011;2448;48.086;10.862;2023-01-16T11:25:17;0.80;;;0.80;;
4867;SDS011;2448;48.086;10.862;2023-01-16T11:27:45;0.80;;;0.80;;
4867;SDS011;2448;48.086;10.862;2023-01-16T11:30:15;0.90;;;0.90;;
4867;SDS011;2448;48.086;10.862;2023-01-16T11:32:41;0.93;;;0.93;;
4867;SDS011;2448;48.086;10.862;2023-01-16T11:35:14;9.00;;;0.80;;
4867;SDS011;2448;48.086;10.862;2023-01-16T11:37:41;6.53;;;0.70;;
4867;SDS011;2448;48.086;10.862;2023-01-16T11:40:12;0.83;;;0.83;;
4867;SDS011;2448;48.086;10.862;2023-01-16T11:42:50;0.70;;;0.70;;
4867;SDS011;2448;48.086;10.862;2023-01-16T11:45:34;0.70;;;0.70;;
4867;SDS011;2448;48.086;10.862;2023-01-16T11:48:23;0.87;;;0.87;;
4867;SDS011;2448;48.086;10.862;2023-01-16T11:50:55;0.57;;;0.50;;
4867;SDS011;2448;48.086;10.862;2023-01-16T11:53:21;1.10;;;1.10;;
4867;SDS011;2448;48.086;10.862;2023-01-16T12:00:52;1.63;;;1.40;;
4867;SDS011;2448;48.086;10.862;2023-01-16T12:03:27;1.30;;;1.20;;
4867;SDS011;2448;48.086;10.862;2023-01-16T12:08:28;0.80;;;0.80;;
4867;SDS011;2448;48.086;10.862;2023-01-16T12:11:08;1.80;;;1.70;;
4867;SDS011;2448;48.086;10.862;2023-01-16T12:13:45;1.37;;;1.37;;
4867;SDS011;2448;48.086;10.862;2023-01-16T12:32:45;1.40;;;1.40;;
4867;SDS011;2448;48.086;10.862;2023-01-16T12:35:17;1.63;;;1.00;;
4867;SDS011;2448;48.086;10.862;2023-01-16T12:37:54;1.40;;;1.33;;
4867;SDS011;2448;48.086;10.862;2023-01-16T12:45:52;1.70;;;1.13;;
4867;SDS011;2448;48.086;10.862;2023-01-16T13:00:30;1.20;;;1.20;;
4867;SDS011;2448;48.086;10.862;2023-01-16T13:03:14;1.10;;;1.07;;
4867;SDS011;2448;48.086;10.862;2023-01-16T13:05:40;1.00;;;1.00;;
4867;SDS011;2448;48.086;10.862;2023-01-16T13:08:50;1.23;;;1.23;;
4867;SDS011;2448;48.086;10.862;2023-01-16T13:10:57;1.23;;;1.13;;
4867;SDS011;2448;48.086;10.862;2023-01-16T13:13:47;1.03;;;1.03;;
4867;SDS011;2448;48.086;10.862;2023-01-16T13:16:36;0.80;;;0.80;;
4867;SDS011;2448;48.086;10.862;2023-01-16T13:19:02;1.20;;;1.00;;
4867;SDS011;2448;48.086;10.862;2023-01-16T13:21:30;2.10;;;1.17;;
4867;SDS011;2448;48.086;10.862;2023-01-16T13:24:20;1.30;;;1.20;;
4867;SDS011;2448;48.086;10.862;2023-01-16T13:26:45;1.70;;;0.90;;
4867;SDS011;2448;48.086;10.862;2023-01-16T13:29:16;0.80;;;0.70;;
4867;SDS011;2448;48.086;10.862;2023-01-16T13:31:55;0.90;;;0.90;;
4867;SDS011;2448;48.086;10.862;2023-01-16T13:34:56;2.23;;;1.90;;
4867;SDS011;2448;48.086;10.862;2023-01-16T13:42:32;1.27;;;1.17;;
4867;SDS011;2448;48.086;10.862;2023-01-16T13:45:04;10.97;;;1.40;;
4867;SDS011;2448;48.086;10.862;2023-01-16T13:47:49;1.60;;;1.43;;
4867;SDS011;2448;48.086;10.862;2023-01-16T13:50:34;1.17;;;1.17;;
4867;SDS011;2448;48.086;10.862;2023-01-16T13:53:01;0.90;;;0.90;;
4867;SDS011;2448;48.086;10.862;2023-01-16T13:55:37;1.40;;;1.30;;
4867;SDS011;2448;48.086;10.862;2023-01-16T13:58:21;0.83;;;0.83;;
4867;SDS011;2448;48.086;10.862;2023-01-16T14:00:58;2.10;;;1.10;;
4867;SDS011;2448;48.086;10.862;2023-01-16T14:03:27;1.20;;;1.20;;
4867;SDS011;2448;48.086;10.862;2023-01-16T14:11:39;1.50;;;1.40;;
4867;SDS011;2448;48.086;10.862;2023-01-16T14:14:16;1.83;;;1.70;;
4867;SDS011;2448;48.086;10.862;2023-01-16T14:17:04;1.23;;;1.23;;
4867;SDS011;2448;48.086;10.862;2023-01-16T14:19:35;1.23;;;1.23;;
4867;SDS011;2448;48.086;10.862;2023-01-16T14:22:01;2.97;;;1.50;;
4867;SDS011;2448;48.086;10.862;2023-01-16T14:24:38;1.00;;;1.00;;
4867;SDS011;2448;48.086;10.862;2023-01-16T14:27:05;0.87;;;0.87;;
4867;SDS011;2448;48.086;10.862;2023-01-16T14:34:25;1.60;;;1.47;;
4867;SDS011;2448;48.086;10.862;2023-01-16T14:36:52;2.37;;;1.60;;
4867;SDS011;2448;48.086;10.862;2023-01-16T14:39:28;1.73;;;1.57;;
4867;SDS011;2448;48.086;10.862;2023-01-16T14:41:56;1.40;;;1.40;;
4867;SDS011;2448;48.086;10.862;2023-01-16T14:44:58;0.87;;;0.87;;
4867;SDS011;2448;48.086;10.862;2023-01-16T14:47:46;4.83;;;1.30;;
4867;SDS011;2448;48.086;10.862;2023-01-16T14:50:50;1.13;;;1.00;;
4867;SDS011;2448;48.086;10.862;2023-01-16T14:53:35;0.80;;;0.80;;
4867;SDS011;2448;48.086;10.862;2023-01-16T14:56:27;0.83;;;0.83;;
4867;SDS011;2448;48.086;10.862;2023-01-16T14:59:04;1.10;;;1.10;;
4867;SDS011;2448;48.086;10.862;2023-01-16T15:01:37;0.90;;;0.90;;
4867;SDS011;2448;48.086;10.862;2023-01-16T15:04:22;1.50;;;0.80;;
4867;SDS011;2448;48.086;10.862;2023-01-16T15:06:50;0.70;;;0.70;;
4867;SDS011;2448;48.086;10.862;2023-01-16T15:09:18;0.90;;;0.90;;
4867;SDS011;2448;48.086;10.862;2023-01-16T15:11:55;0.83;;;0.83;;
4867;SDS011;2448;48.086;10.862;2023-01-16T15:14:22;0.73;;;0.73;;
4867;SDS011;2448;48.086;10.862;2023-01-16T15:23:03;0.83;;;0.83;;
4867;SDS011;2448;48.086;10.862;2023-01-16T15:30:32;1.13;;;1.07;;
4867;SDS011;2448;48.086;10.862;2023-01-16T15:32:59;0.90;;;0.90;;
4867;SDS011;2448;48.086;10.862;2023-01-16T15:35:44;0.90;;;0.90;;
4867;SDS011;2448;48.086;10.862;2023-01-16T15:38:19;1.80;;;1.80;;
4867;SDS011;2448;48.086;10.862;2023-01-16T15:40:51;3.33;;;1.30;;
4867;SDS011;2448;48.086;10.862;2023-01-16T15:43:16;1.30;;;1.20;;
4867;SDS011;2448;48.086;10.862;2023-01-16T15:46:06;1.40;;;1.30;;
4867;SDS011;2448;48.086;10.862;2023-01-16T15:51:41;2.03;;;1.30;;
4867;SDS011;2448;48.086;10.862;2023-01-16T15:54:13;1.07;;;1.07;;
4867;SDS011;2448;48.086;10.862;2023-01-16T15:56:41;1.07;;;1.07;;
4867;SDS011;2448;48.086;10.862;2023-01-16T15:59:27;1.03;;;1.00;;
4867;SDS011;2448;48.086;10.862;2023-01-16T16:01:53;1.00;;;1.00;;
4867;SDS011;2448;48.086;10.862;2023-01-16T16:04:19;1.40;;;1.30;;
4867;SDS011;2448;48.086;10.862;2023-01-16T16:06:45;1.00;;;1.00;;
4867;SDS011;2448;48.086;10.862;2023-01-16T16:09:18;1.00;;;1.00;;
4867;SDS011;2448;48.086;10.862;2023-01-16T16:11:44;6.07;;;1.90;;
4867;SDS011;2448;48.086;10.862;2023-01-16T16:14:30;1.27;;;1.27;;
4867;SDS011;2448;48.086;10.862;2023-01-16T16:17:22;3.60;;;3.30;;
4867;SDS011;2448;48.086;10.862;2023-01-16T16:22:50;1.53;;;1.47;;
4867;SDS011;2448;48.086;10.862;2023-01-16T16:25:18;7.27;;;1.63;;
4867;SDS011;2448;48.086;10.862;2023-01-16T16:27:44;2.63;;;1.70;;
4867;SDS011;2448;48.086;10.862;2023-01-16T16:30:16;2.53;;;1.83;;
4867;SDS011;2448;48.086;10.862;2023-01-16T16:32:43;1.90;;;1.60;;
4867;SDS011;2448;48.086;10.862;2023-01-16T16:38:16;2.03;;;1.90;;
4867;SDS011;2448;48.086;10.862;2023-01-16T16:40:42;1.30;;;1.20;;
4867;SDS011;2448;48.086;10.862;2023-01-16T16:43:08;2.33;;;2.00;;
4867;SDS011;2448;48.086;10.862;2023-01-16T16:45:34;1.50;;;1.50;;
4867;SDS011;2448;48.086;10.862;2023-01-16T16:48:20;2.10;;;2.00;;
4867;SDS011;2448;48.086;10.862;2023-01-16T16:50:48;4.97;;;2.03;;
4867;SDS011;2448;48.086;10.862;2023-01-16T16:53:14;1.43;;;1.33;;
4867;SDS011;2448;48.086;10.862;2023-01-16T16:55:42;2.67;;;2.50;;
4867;SDS011;2448;48.086;10.862;2023-01-16T16:58:15;6.80;;;1.77;;
4867;SDS011;2448;48.086;10.862;2023-01-16T17:00:41;2.50;;;2.33;;
4867;SDS011;2448;48.086;10.862;2023-01-16T17:05:36;2.50;;;2.03;;
4867;SDS011;2448;48.086;10.862;2023-01-16T17:08:01;2.67;;;2.10;;
4867;SDS011;2448;48.086;10.862;2023-01-16T17:10:27;6.60;;;2.40;;
4867;SDS011;2448;48.086;10.862;2023-01-16T17:12:52;2.37;;;2.00;;
4867;SDS011;2448;48.086;10.862;2023-01-16T17:15:19;2.00;;;1.90;;
4867;SDS011;2448;48.086;10.862;2023-01-16T17:17:44;1.80;;;1.70;;
4867;SDS011;2448;48.086;10.862;2023-01-16T17:20:17;1.97;;;1.87;;
4867;SDS011;2448;48.086;10.862;2023-01-16T17:22:42;5.30;;;1.53;;
4867;SDS011;2448;48.086;10.862;2023-01-16T17:25:09;1.70;;;1.60;;
4867;SDS011;2448;48.086;10.862;2023-01-16T17:27:39;1.53;;;1.53;;
4867;SDS011;2448;48.086;10.862;2023-01-16T17:30:06;1.53;;;1.43;;
4867;SDS011;2448;48.086;10.862;2023-01-16T17:32:32;2.20;;;1.73;;
4867;SDS011;2448;48.086;10.862;2023-01-16T17:34:57;1.30;;;1.23;;
4867;SDS011;2448;48.086;10.862;2023-01-16T17:37:23;2.43;;;2.33;;